createdAt,value
2023-07-03T00:00:54.860Z,100.00
2023-07-03T00:03:23.844Z,100.00
2023-07-03T00:05:52.763Z,100.00
2023-07-03T00:08:21.754Z,100.00
2023-07-03T00:10:50.573Z,100.00
2023-07-03T00:13:19.224Z,100.00
2023-07-03T00:15:49.453Z,100.00
2023-07-03T00:18:18.664Z,100.00
2023-07-03T00:20:48.215Z,100.00
2023-07-03T00:23:17.119Z,100.00
2023-07-03T00:25:45.885Z,100.00
2023-07-03T00:28:14.683Z,100.00
2023-07-03T00:30:43.355Z,100.00
2023-07-03T00:33:13.676Z,100.00
2023-07-03T00:35:42.058Z,100.00
2023-07-03T00:38:11.189Z,100.00
2023-07-03T00:40:39.878Z,100.00
2023-07-03T00:43:08.891Z,100.00
2023-07-03T00:45:39.312Z,100.00
2023-07-03T00:48:08.159Z,100.00
2023-07-03T00:50:38.452Z,100.00
2023-07-03T00:53:08.400Z,100.00
2023-07-03T00:55:40.256Z,100.00
2023-07-03T00:58:09.070Z,100.00
2023-07-03T01:00:45.494Z,100.00
2023-07-03T01:03:22.865Z,100.00
2023-07-03T01:05:57.244Z,100.00
2023-07-03T01:08:28.005Z,100.00
2023-07-03T01:10:57.741Z,100.00
2023-07-03T01:13:30.513Z,100.00
2023-07-03T01:16:00.507Z,100.00
2023-07-03T01:18:30.263Z,100.00
2023-07-03T01:21:06.482Z,100.00
2023-07-03T01:23:42.210Z,100.00
2023-07-03T01:26:13.522Z,100.00
2023-07-03T01:28:44.318Z,100.00
2023-07-03T01:31:16.419Z,100.00
2023-07-03T01:33:46.509Z,100.00
2023-07-03T01:36:17.360Z,100.00
2023-07-03T01:38:48.048Z,100.00
2023-07-03T01:41:19.410Z,100.00
2023-07-03T01:43:49.419Z,100.00
2023-07-03T01:46:18.853Z,100.00
2023-07-03T01:48:47.623Z,100.00
2023-07-03T01:51:22.990Z,100.00
2023-07-03T01:53:58.742Z,100.00
2023-07-03T01:56:33.883Z,100.00
2023-07-03T01:59:08.525Z,100.00
2023-07-03T02:01:44.912Z,100.00
2023-07-03T02:04:20.935Z,100.00
2023-07-03T02:06:50.534Z,100.00
2023-07-03T02:09:19.476Z,100.00
2023-07-03T02:11:50.560Z,100.00
2023-07-03T02:14:19.396Z,100.00
2023-07-03T02:16:49.010Z,100.00
2023-07-03T02:19:18.240Z,100.00
2023-07-03T02:21:47.090Z,100.00
2023-07-03T02:24:16.057Z,100.00
2023-07-03T02:26:45.144Z,100.00
2023-07-03T02:29:15.301Z,100.00
2023-07-03T02:31:44.277Z,100.00
2023-07-03T02:34:13.020Z,100.00
2023-07-03T02:36:42.447Z,100.00
2023-07-03T02:39:11.975Z,100.00
2023-07-03T02:41:40.693Z,100.00
2023-07-03T02:44:09.322Z,100.00
2023-07-03T02:46:40.601Z,100.00
2023-07-03T02:49:09.318Z,100.00
2023-07-03T02:51:38.033Z,100.00
2023-07-03T02:54:07.677Z,100.00
2023-07-03T02:56:36.386Z,100.00
2023-07-03T02:59:05.050Z,100.00
2023-07-03T03:01:33.824Z,100.00
2023-07-03T03:04:04.211Z,100.00
2023-07-03T03:06:32.536Z,100.00
2023-07-03T03:09:01.252Z,100.00
2023-07-03T03:11:30.207Z,100.00
2023-07-03T03:13:58.889Z,100.00
2023-07-03T03:16:27.901Z,100.00
2023-07-03T03:18:56.818Z,100.00
2023-07-03T03:21:26.999Z,100.00
2023-07-03T03:23:55.834Z,100.00
2023-07-03T03:26:24.889Z,100.00
2023-07-03T03:28:53.828Z,100.00
2023-07-03T03:31:22.624Z,100.00
2023-07-03T03:33:51.344Z,100.00
2023-07-03T03:36:20.110Z,100.00
2023-07-03T03:38:50.513Z,100.00
2023-07-03T03:41:18.956Z,100.00
2023-07-03T03:43:48.964Z,100.00
2023-07-03T03:46:17.725Z,100.00
2023-07-03T03:48:47.687Z,100.00
2023-07-03T03:51:16.588Z,100.00
2023-07-03T03:53:45.301Z,100.00
2023-07-03T03:56:15.879Z,100.00
2023-07-03T03:58:44.627Z,100.00
2023-07-03T04:01:13.702Z,100.00
2023-07-03T04:03:43.527Z,100.00
2023-07-03T04:06:14.391Z,100.00
2023-07-03T04:08:43.460Z,100.00
2023-07-03T04:11:12.709Z,100.00
2023-07-03T04:13:43.161Z,100.00
2023-07-03T04:16:12.788Z,100.00
2023-07-03T04:18:42.075Z,100.00
2023-07-03T04:21:10.880Z,100.00
2023-07-03T04:23:39.557Z,100.00
2023-07-03T04:26:08.922Z,100.00
2023-07-03T04:28:37.679Z,100.00
2023-07-03T04:31:08.207Z,100.00
2023-07-03T04:33:37.021Z,100.00
2023-07-03T04:36:06.052Z,100.00
2023-07-03T04:38:35.018Z,100.00
2023-07-03T04:41:05.361Z,100.00
2023-07-03T04:43:34.096Z,100.00
2023-07-03T04:46:05.102Z,100.00
2023-07-03T04:48:35.504Z,100.00
2023-07-03T04:51:05.225Z,100.00
2023-07-03T04:53:43.599Z,100.00
2023-07-03T04:56:13.197Z,100.00
2023-07-03T04:58:42.452Z,100.00
2023-07-03T05:01:13.677Z,100.00
2023-07-03T05:03:43.866Z,100.00
2023-07-03T05:06:13.302Z,99.69
2023-07-03T05:08:42.280Z,98.44
2023-07-03T05:11:10.962Z,98.68
2023-07-03T05:13:39.587Z,97.35
2023-07-03T05:16:08.357Z,99.56
2023-07-03T05:18:37.105Z,100.00
2023-07-03T05:21:07.793Z,100.00
2023-07-03T05:23:36.641Z,100.00
2023-07-03T05:26:05.428Z,100.00
2023-07-03T05:28:34.895Z,100.00
2023-07-03T05:31:03.713Z,100.00
2023-07-03T05:33:33.495Z,100.00
2023-07-03T05:36:04.241Z,100.00
2023-07-03T05:38:34.930Z,100.00
2023-07-03T05:41:03.633Z,100.00
2023-07-03T05:43:32.483Z,100.00
2023-07-03T05:46:01.352Z,100.00
2023-07-03T05:48:30.040Z,100.00
2023-07-03T05:50:58.773Z,100.00
2023-07-03T05:53:27.381Z,100.00
2023-07-03T05:55:59.045Z,100.00
2023-07-03T05:58:29.564Z,100.00
2023-07-03T06:01:00.568Z,100.00
2023-07-03T06:03:30.259Z,100.00
2023-07-03T06:05:59.227Z,100.00
2023-07-03T06:08:28.132Z,100.00
2023-07-03T06:10:58.412Z,100.00
2023-07-03T06:13:27.122Z,100.00
2023-07-03T06:15:55.922Z,100.00
2023-07-03T06:18:24.680Z,100.00
2023-07-03T06:20:53.369Z,100.00
2023-07-03T06:23:22.000Z,100.00
2023-07-03T06:25:51.397Z,100.00
2023-07-03T06:28:21.862Z,100.00
2023-07-03T06:30:51.794Z,100.00
2023-07-03T06:33:20.701Z,100.00
2023-07-03T06:35:52.302Z,100.00
2023-07-03T06:38:21.441Z,100.00
2023-07-03T06:40:58.287Z,100.00
2023-07-03T06:43:28.886Z,100.00
2023-07-03T06:45:58.697Z,100.00
2023-07-03T06:48:30.678Z,100.00
2023-07-03T06:51:07.098Z,100.00
2023-07-03T06:53:35.988Z,100.00
2023-07-03T06:56:05.701Z,100.00
2023-07-03T06:58:36.610Z,100.00
2023-07-03T07:01:09.360Z,100.00
2023-07-03T07:03:38.347Z,100.00
2023-07-03T07:06:12.598Z,100.00
2023-07-03T07:08:41.675Z,100.00
2023-07-03T07:11:12.022Z,100.00
2023-07-03T07:13:43.251Z,100.00
2023-07-03T07:16:16.914Z,100.00
2023-07-03T07:18:48.055Z,100.00
2023-07-03T07:21:17.263Z,100.00
2023-07-03T07:23:48.561Z,100.00
2023-07-03T07:26:17.414Z,100.00
2023-07-03T07:28:47.541Z,100.00
2023-07-03T07:31:21.458Z,100.00
2023-07-03T07:33:50.608Z,100.00
2023-07-03T07:36:21.581Z,100.00
2023-07-03T07:38:53.043Z,100.00
2023-07-03T07:41:24.063Z,100.00
2023-07-03T07:43:54.867Z,100.00
2023-07-03T07:46:26.804Z,100.00
2023-07-03T07:48:55.583Z,100.00
2023-07-03T07:51:24.462Z,100.00
2023-07-03T07:53:53.767Z,100.00
2023-07-03T07:56:23.196Z,100.00
2023-07-03T07:58:51.941Z,100.00
2023-07-03T08:01:23.218Z,100.00
2023-07-03T08:03:52.622Z,100.00
2023-07-03T08:06:21.558Z,100.00
2023-07-03T08:08:51.764Z,100.00
2023-07-03T08:11:20.601Z,100.00
2023-07-03T08:13:49.322Z,100.00
2023-07-03T08:16:19.045Z,100.00
2023-07-03T08:18:50.054Z,100.00
2023-07-03T08:21:19.067Z,100.00
2023-07-03T08:23:47.896Z,100.00
2023-07-03T08:26:21.056Z,100.00
2023-07-03T08:28:50.384Z,100.00
2023-07-03T08:31:19.865Z,98.52
2023-07-03T08:33:50.152Z,98.72
2023-07-03T08:38:50.882Z,100.00
2023-07-03T08:41:21.135Z,100.00
2023-07-03T08:43:56.321Z,96.99
2023-07-03T08:46:27.903Z,100.00
2023-07-03T08:49:05.480Z,100.00
2023-07-03T08:51:38.530Z,100.00
2023-07-03T08:54:15.385Z,100.00
2023-07-03T08:56:45.076Z,100.00
2023-07-03T08:59:13.765Z,100.00
2023-07-03T09:01:53.972Z,100.00
2023-07-03T09:04:41.651Z,100.00
2023-07-03T09:07:16.355Z,100.00
2023-07-03T09:09:51.609Z,100.00
2023-07-03T09:12:25.541Z,100.00
2023-07-03T09:15:02.242Z,100.00
2023-07-03T09:17:32.908Z,100.00
2023-07-03T09:20:05.551Z,100.00
2023-07-03T09:22:41.855Z,100.00
2023-07-03T09:25:14.218Z,100.00
2023-07-03T09:27:46.766Z,100.00
2023-07-03T09:30:18.460Z,100.00
2023-07-03T09:32:47.298Z,100.00
2023-07-03T09:35:18.918Z,100.00
2023-07-03T09:37:51.538Z,100.00
2023-07-03T09:40:24.951Z,100.00
2023-07-03T09:42:53.903Z,100.00
2023-07-03T09:45:24.526Z,100.00
2023-07-03T09:47:57.417Z,100.00
2023-07-03T09:50:36.180Z,100.00
2023-07-03T09:53:09.809Z,100.00
2023-07-03T09:55:39.343Z,100.00
2023-07-03T09:58:15.761Z,100.00
2023-07-03T10:00:52.707Z,100.00
2023-07-03T10:08:31.717Z,100.00
2023-07-03T10:13:41.796Z,100.00
2023-07-03T10:16:11.951Z,100.00
2023-07-03T10:18:46.245Z,100.00
2023-07-03T10:21:19.858Z,100.00
2023-07-03T10:23:50.130Z,100.00
2023-07-03T10:26:25.566Z,100.00
2023-07-03T10:29:00.191Z,100.00
2023-07-03T10:31:35.217Z,100.00
2023-07-03T10:34:12.380Z,100.00
2023-07-03T10:36:46.092Z,100.00
2023-07-03T10:39:19.218Z,100.00
2023-07-03T10:41:52.463Z,100.00
2023-07-03T10:44:26.020Z,100.00
2023-07-03T10:47:01.104Z,100.00
2023-07-03T10:49:33.077Z,100.00
2023-07-03T10:52:14.141Z,100.00
2023-07-03T10:54:52.454Z,100.00
2023-07-03T10:57:31.206Z,100.00
2023-07-03T11:00:08.153Z,100.00
2023-07-03T11:02:44.799Z,100.00
2023-07-03T11:05:23.065Z,100.00
2023-07-03T11:08:02.558Z,100.00
2023-07-03T11:10:39.062Z,100.00
2023-07-03T11:13:17.468Z,100.00
2023-07-03T11:15:53.693Z,100.00
2023-07-03T11:24:00.733Z,100.00
2023-07-03T11:29:09.702Z,100.00
2023-07-03T11:31:41.120Z,99.18
2023-07-03T11:44:36.250Z,100.00
2023-07-03T11:47:09.258Z,100.00
2023-07-03T11:49:40.890Z,99.74
2023-07-03T11:52:14.720Z,99.85
2023-07-03T11:54:45.705Z,99.35
2023-07-03T11:57:31.964Z,95.97
2023-07-03T12:00:17.170Z,96.01
2023-07-03T12:02:54.594Z,95.81
2023-07-03T12:05:55.008Z,93.72
2023-07-03T12:08:43.866Z,95.15
2023-07-03T12:11:16.298Z,96.48
2023-07-03T12:13:56.505Z,96.12
2023-07-03T12:16:36.723Z,95.28
2023-07-03T12:19:11.026Z,91.74
2023-07-03T12:21:43.966Z,91.16
2023-07-03T12:24:22.908Z,88.77
2023-07-03T12:27:04.890Z,89.33
2023-07-03T12:29:36.371Z,88.49
2023-07-03T12:32:09.141Z,91.55
2023-07-03T12:34:39.740Z,90.60
2023-07-03T12:37:12.542Z,91.00
2023-07-03T12:39:41.341Z,87.43
2023-07-03T12:42:17.979Z,89.21
2023-07-03T12:44:46.882Z,89.79
2023-07-03T12:47:19.385Z,90.32
2023-07-03T12:50:00.448Z,89.52
2023-07-03T12:52:32.447Z,88.42
2023-07-03T12:55:14.041Z,87.83
2023-07-03T12:57:46.509Z,88.87
2023-07-03T13:00:26.172Z,85.50
2023-07-03T13:02:59.734Z,87.65
2023-07-03T13:05:29.301Z,89.61
2023-07-03T13:07:58.949Z,87.99
2023-07-03T13:10:28.104Z,90.68
2023-07-03T13:13:13.097Z,89.65
2023-07-03T13:15:43.589Z,88.49
2023-07-03T13:18:17.015Z,85.76
2023-07-03T13:20:57.919Z,81.87
2023-07-03T13:23:31.129Z,84.10
2023-07-03T13:26:01.500Z,84.39
2023-07-03T13:28:33.342Z,81.52
2023-07-03T13:31:13.113Z,82.82
2023-07-03T13:33:44.140Z,83.24
2023-07-03T13:36:24.514Z,84.23
2023-07-03T13:39:03.232Z,83.96
2023-07-03T13:41:32.224Z,81.41
2023-07-03T13:44:04.087Z,83.12
2023-07-03T13:46:34.712Z,82.75
2023-07-03T13:49:04.190Z,83.90
2023-07-03T13:51:33.474Z,83.96
2023-07-03T13:54:11.329Z,85.58
2023-07-03T13:56:41.527Z,85.99
2023-07-03T13:59:12.946Z,84.70
2023-07-03T14:01:43.997Z,87.64
2023-07-03T14:04:14.067Z,85.47
2023-07-03T14:06:43.250Z,90.36
2023-07-03T14:09:12.270Z,81.90
2023-07-03T14:11:42.238Z,86.48
2023-07-03T14:14:13.578Z,88.15
2023-07-03T14:16:42.333Z,90.51
2023-07-03T14:19:11.198Z,91.40
2023-07-03T14:21:40.709Z,98.68
2023-07-03T14:24:10.777Z,100.00
2023-07-03T14:26:39.634Z,100.00
2023-07-03T14:29:08.801Z,100.00
2023-07-03T14:31:38.970Z,100.00
2023-07-03T14:34:08.073Z,100.00
2023-07-03T14:36:36.701Z,100.00
2023-07-03T14:39:05.592Z,100.00
2023-07-03T14:41:34.434Z,100.00
2023-07-03T14:44:03.152Z,100.00
2023-07-03T14:46:31.812Z,100.00
2023-07-03T14:49:02.059Z,100.00
2023-07-03T14:51:30.884Z,100.00
2023-07-03T14:53:59.578Z,100.00
2023-07-03T14:56:28.220Z,100.00
2023-07-03T14:58:56.944Z,100.00
2023-07-03T15:01:28.385Z,100.00
2023-07-03T15:03:57.358Z,100.00
2023-07-03T15:06:27.622Z,100.00
2023-07-03T15:08:56.737Z,100.00
2023-07-03T15:11:25.439Z,100.00
2023-07-03T15:13:54.270Z,100.00
2023-07-03T15:16:29.191Z,100.00
2023-07-03T15:19:02.185Z,100.00
2023-07-03T15:21:33.062Z,100.00
2023-07-03T15:24:01.778Z,100.00
2023-07-03T15:26:30.445Z,100.00
2023-07-03T15:28:59.183Z,100.00
2023-07-03T15:31:28.402Z,100.00
2023-07-03T15:33:57.629Z,100.00
2023-07-03T15:36:26.472Z,100.00
2023-07-03T15:38:56.656Z,100.00
2023-07-03T15:41:26.570Z,100.00
2023-07-03T15:43:55.419Z,100.00
2023-07-03T15:46:24.699Z,100.00
2023-07-03T15:48:53.702Z,100.00
2023-07-03T15:51:22.528Z,100.00
2023-07-03T15:53:51.364Z,100.00
2023-07-03T15:56:22.048Z,100.00
2023-07-03T15:58:54.707Z,100.00
2023-07-03T16:01:25.535Z,100.00
2023-07-03T16:03:55.780Z,100.00
2023-07-03T16:06:26.293Z,100.00
2023-07-03T16:08:58.136Z,100.00
2023-07-03T16:11:28.998Z,100.00
2023-07-03T16:14:00.519Z,100.00
2023-07-03T16:16:29.946Z,100.00
2023-07-03T16:19:00.082Z,100.00
2023-07-03T16:21:31.481Z,100.00
2023-07-03T16:24:00.856Z,100.00
2023-07-03T16:26:31.450Z,100.00
2023-07-03T16:29:00.770Z,100.00
2023-07-03T16:31:31.506Z,100.00
2023-07-03T16:34:02.802Z,100.00
2023-07-03T16:36:33.573Z,100.00
2023-07-03T16:39:04.865Z,100.00
2023-07-03T16:41:37.389Z,100.00
2023-07-03T16:44:06.511Z,100.00
2023-07-03T16:46:37.117Z,100.00
2023-07-03T16:49:08.622Z,100.00
2023-07-03T16:51:37.399Z,100.00
2023-07-03T16:54:07.392Z,100.00
2023-07-03T16:56:37.580Z,100.00
2023-07-03T16:59:06.553Z,100.00
2023-07-03T17:01:35.281Z,100.00
2023-07-03T17:04:04.149Z,100.00
2023-07-03T17:06:36.403Z,100.00
2023-07-03T17:09:06.040Z,100.00
2023-07-03T17:11:34.890Z,100.00
2023-07-03T17:14:05.820Z,100.00
2023-07-03T17:16:34.554Z,100.00
2023-07-03T17:19:03.490Z,100.00
2023-07-03T17:21:32.780Z,100.00
2023-07-03T17:24:03.521Z,100.00
2023-07-03T17:26:34.340Z,100.00
2023-07-03T17:29:05.686Z,100.00
2023-07-03T17:31:34.772Z,100.00
2023-07-03T17:34:05.162Z,100.00
2023-07-03T17:36:34.114Z,100.00
2023-07-03T17:39:03.139Z,100.00
2023-07-03T17:41:31.846Z,100.00
2023-07-03T17:44:00.762Z,100.00
2023-07-03T17:46:31.432Z,100.00
2023-07-03T17:49:00.497Z,100.00
2023-07-03T17:51:35.590Z,100.00
2023-07-03T17:54:05.134Z,100.00
2023-07-03T17:56:34.201Z,100.00
2023-07-03T17:59:03.001Z,100.00
2023-07-03T18:01:33.312Z,100.00
2023-07-03T18:04:02.322Z,100.00
2023-07-03T18:06:32.284Z,100.00
2023-07-03T18:09:01.201Z,100.00
2023-07-03T18:11:30.192Z,100.00
2023-07-03T18:13:59.101Z,100.00
2023-07-03T18:16:27.975Z,100.00
2023-07-03T18:18:58.299Z,100.00
2023-07-03T18:21:26.700Z,100.00
2023-07-03T18:23:55.835Z,100.00
2023-07-03T18:26:24.579Z,100.00
2023-07-03T18:28:53.337Z,100.00
2023-07-03T18:31:26.191Z,100.00
2023-07-03T18:33:55.793Z,100.00
2023-07-03T18:36:26.597Z,100.00
2023-07-03T18:38:57.032Z,100.00
2023-07-03T18:41:26.364Z,100.00
2023-07-03T18:43:55.476Z,100.00
2023-07-03T18:46:24.689Z,100.00
2023-07-03T18:48:53.601Z,100.00
2023-07-03T18:51:24.272Z,100.00
2023-07-03T18:53:55.500Z,100.00
2023-07-03T18:56:24.162Z,100.00
2023-07-03T18:58:53.180Z,100.00
2023-07-03T19:01:22.464Z,100.00
2023-07-03T19:03:51.448Z,100.00
2023-07-03T19:06:23.247Z,100.00
2023-07-03T19:08:51.921Z,100.00
2023-07-03T19:11:22.250Z,100.00
2023-07-03T19:13:50.622Z,100.00
2023-07-03T19:16:19.670Z,100.00
2023-07-03T19:18:49.715Z,100.00
2023-07-03T19:21:19.314Z,100.00
2023-07-03T19:23:48.121Z,100.00
2023-07-03T19:26:16.882Z,100.00
2023-07-03T19:28:50.715Z,100.00
2023-07-03T19:31:19.918Z,100.00
2023-07-03T19:33:48.670Z,100.00
2023-07-03T19:36:19.284Z,100.00
2023-07-03T19:38:48.094Z,100.00
2023-07-03T19:41:17.697Z,100.00
2023-07-03T19:43:48.054Z,100.00
2023-07-03T19:46:16.406Z,100.00
2023-07-03T19:48:45.432Z,100.00
2023-07-03T19:51:14.583Z,100.00
2023-07-03T19:53:43.317Z,100.00
2023-07-03T19:56:16.265Z,100.00
2023-07-03T19:58:45.428Z,100.00
2023-07-03T20:01:16.491Z,100.00
2023-07-03T20:03:45.926Z,100.00
2023-07-03T20:06:18.868Z,100.00
2023-07-03T20:08:47.622Z,100.00
2023-07-03T20:11:16.522Z,100.00
2023-07-03T20:13:45.515Z,100.00
2023-07-03T20:16:17.134Z,100.00
2023-07-03T20:18:50.828Z,100.00
2023-07-03T20:21:19.808Z,100.00
2023-07-03T20:23:49.078Z,100.00
2023-07-03T20:26:18.485Z,100.00
2023-07-03T20:28:47.348Z,100.00
2023-07-03T20:31:17.793Z,100.00
2023-07-03T20:33:48.176Z,100.00
2023-07-03T20:36:17.499Z,100.00
2023-07-03T20:38:46.408Z,100.00
2023-07-03T20:41:17.340Z,100.00
2023-07-03T20:43:46.721Z,100.00
2023-07-03T20:46:22.489Z,100.00
2023-07-03T20:48:56.385Z,100.00
2023-07-03T20:51:28.280Z,100.00
2023-07-03T20:54:04.985Z,100.00
2023-07-03T20:56:39.384Z,100.00
2023-07-03T20:59:10.668Z,100.00
2023-07-03T21:01:41.052Z,100.00
2023-07-03T21:04:09.929Z,100.00
2023-07-03T21:06:39.912Z,100.00
2023-07-03T21:09:09.120Z,100.00
2023-07-03T21:11:40.681Z,100.00
2023-07-03T21:14:09.577Z,100.00
2023-07-03T21:16:39.955Z,100.00
2023-07-03T21:19:09.258Z,100.00
2023-07-03T21:21:38.396Z,100.00
2023-07-03T21:24:10.220Z,100.00
2023-07-03T21:26:39.488Z,100.00
2023-07-03T21:29:08.353Z,100.00
2023-07-03T21:31:40.304Z,100.00
2023-07-03T21:34:09.041Z,100.00
2023-07-03T21:36:37.790Z,100.00
2023-07-03T21:39:06.832Z,100.00
2023-07-03T21:41:37.553Z,100.00
2023-07-03T21:44:13.501Z,100.00
2023-07-03T21:46:44.458Z,100.00
2023-07-03T21:49:14.463Z,100.00
2023-07-03T21:51:43.624Z,100.00
2023-07-03T21:54:12.311Z,100.00
2023-07-03T21:56:43.575Z,100.00
2023-07-03T21:59:13.462Z,100.00
2023-07-03T22:01:44.407Z,100.00
2023-07-03T22:04:13.280Z,100.00
2023-07-03T22:06:42.026Z,100.00
2023-07-03T22:09:10.925Z,100.00
2023-07-03T22:11:40.626Z,100.00
2023-07-03T22:14:09.376Z,100.00
2023-07-03T22:16:38.332Z,100.00
2023-07-03T22:19:09.259Z,100.00
2023-07-03T22:21:37.960Z,100.00
2023-07-03T22:24:07.090Z,100.00
2023-07-03T22:26:35.747Z,100.00
2023-07-03T22:29:04.418Z,100.00
2023-07-03T22:31:33.472Z,100.00
2023-07-03T22:34:02.232Z,100.00
2023-07-03T22:36:32.589Z,100.00
2023-07-03T22:39:01.418Z,100.00
2023-07-03T22:41:30.427Z,100.00
2023-07-03T22:43:59.224Z,100.00
2023-07-03T22:46:27.973Z,98.89
2023-07-03T22:48:56.621Z,98.66
2023-07-03T22:51:25.521Z,99.62
2023-07-03T22:53:55.770Z,99.29
2023-07-03T22:56:24.399Z,100.00
2023-07-03T22:58:53.063Z,98.33
2023-07-03T23:01:21.953Z,99.92
2023-07-03T23:03:50.630Z,95.75
2023-07-03T23:06:19.391Z,98.74
2023-07-03T23:08:48.092Z,94.47
2023-07-03T23:11:18.321Z,95.86
2023-07-03T23:13:47.089Z,95.35
2023-07-03T23:16:15.880Z,94.71
2023-07-03T23:18:44.904Z,93.73
2023-07-03T23:21:15.460Z,92.31
2023-07-03T23:23:44.442Z,91.86
2023-07-03T23:26:16.130Z,90.14
2023-07-03T23:28:47.232Z,90.17
2023-07-03T23:31:17.997Z,92.06
2023-07-03T23:33:49.612Z,93.53
2023-07-03T23:36:23.920Z,91.85
2023-07-03T23:38:53.425Z,92.38
2023-07-03T23:41:22.520Z,93.96
2023-07-03T23:43:53.672Z,94.01
2023-07-03T23:46:23.589Z,92.64
2023-07-03T23:48:52.641Z,93.26
2023-07-03T23:51:22.298Z,93.26
2023-07-03T23:53:51.143Z,92.19
2023-07-03T23:56:21.409Z,91.03
2023-07-03T23:58:52.299Z,91.62
